M/T Kriti Rock — SVBJ2 — position and weather

sailwx.info

Track history (hours):
 
Tides and Currents Weather Stations Pressure Air Temp Water Temp Dewpoint Dewpoint Depression Visibility Wind Speed Wind Dir Waves Ship Positions

M/T Kriti Rock

Last reported at 2018-Jul-22 17:59 UTC. Time now 2018-Jul-22 18:09 UTC.
Position N 41°27' E 029°29'.

Length 186 m; draft 12 m.

Type: Ship. MMSI: 241130000.

Date/timePositionNaut miles runAvg speedWind from/ knotsBaromVisibWave heightAir tempDewpointWater temp
2018-Jul-22 17:59N 41°27' E 029°29'612.1
2018-Jul-22 17:31N 41°29' E 029°36'612.2
2018-Jul-22 17:01N 41°31' E 029°44'1812.1
2018-Jul-22 15:31N 41°37' E 030°06'612.0
2018-Jul-22 14:59N 41°39' E 030°15'16711.9
2018-Jul-22 00:59N 42°36' E 033°46'  
2018-Jul-16 23:30N 41°34' E 029°53'3313.6
2018-Jul-16 21:03N 41°20' E 029°13'213.9
2018-Jul-16 20:54N 41°18' E 029°12'  
2018-Jul-13 01:51N 37°36' E 024°11'514.0
2018-Jul-13 01:30N 37°32' E 024°07'713.7
2018-Jul-13 00:59N 37°27' E 024°02'713.5
2018-Jul-13 00:27N 37°21' E 023°56'713.1
2018-Jul-12 23:54N 37°14' E 023°53'  
Track history (hours):
 
Tides and Currents Weather Stations Pressure Air Temp Water Temp Dewpoint Dewpoint Depression Visibility Wind Speed Wind Dir Waves Ship Positions

M/T Kriti Rock

Last reported at 2018-Jul-22 17:59 UTC. Time now 2018-Jul-22 18:09 UTC.
Position N 41°27' E 029°29'.

Length 186 m; draft 12 m.

Type: Ship. MMSI: 241130000.

Date/timePositionNaut miles runAvg speedWind from/ knotsBaromVisibWave heightAir tempDewpointWater temp
2018-Jul-22 17:59N 41°27' E 029°29'612.1
2018-Jul-22 17:31N 41°29' E 029°36'612.2
2018-Jul-22 17:01N 41°31' E 029°44'1812.1
2018-Jul-22 15:31N 41°37' E 030°06'612.0
2018-Jul-22 14:59N 41°39' E 030°15'16711.9
2018-Jul-22 00:59N 42°36' E 033°46'  
2018-Jul-16 23:30N 41°34' E 029°53'3313.6
2018-Jul-16 21:03N 41°20' E 029°13'213.9
2018-Jul-16 20:54N 41°18' E 029°12'  
2018-Jul-13 01:51N 37°36' E 024°11'514.0
2018-Jul-13 01:30N 37°32' E 024°07'713.7
2018-Jul-13 00:59N 37°27' E 024°02'713.5
2018-Jul-13 00:27N 37°21' E 023°56'713.1
2018-Jul-12 23:54N 37°14' E 023°53'  

Dump ship's entire track history